createdAt,value
2019-02-26T00:00:29.342Z,6.47
2019-02-26T00:05:23.868Z,5.03
2019-02-26T00:10:16.376Z,5.17
2019-02-26T00:15:09.877Z,5.13
2019-02-26T00:20:05.592Z,6.00
2019-02-26T00:24:56.932Z,4.20
2019-02-26T00:29:51.373Z,4.50
2019-02-26T00:34:43.876Z,5.87
2019-02-26T00:39:37.277Z,5.00
2019-02-26T00:44:32.223Z,3.97
2019-02-26T00:49:25.812Z,5.13
2019-02-26T00:54:20.223Z,3.80
2019-02-26T00:59:10.792Z,5.40
2019-02-26T01:04:04.171Z,7.00
2019-02-26T01:08:58.994Z,4.77
2019-02-26T01:13:52.743Z,10.17
2019-02-26T01:18:45.124Z,7.00
2019-02-26T01:23:37.631Z,5.13
2019-02-26T01:28:31.048Z,6.50
2019-02-26T01:33:25.072Z,5.33
2019-02-26T01:38:18.818Z,5.77
2019-02-26T01:43:11.246Z,5.90
2019-02-26T01:48:06.419Z,6.20
2019-02-26T01:52:59.119Z,6.50
2019-02-26T01:57:51.681Z,6.73
2019-02-26T02:02:45.332Z,5.87
2019-02-26T02:07:38.715Z,4.37
2019-02-26T02:12:34.265Z,6.10
2019-02-26T02:17:25.435Z,5.73
2019-02-26T02:22:19.579Z,5.00
2019-02-26T02:27:15.006Z,5.67
2019-02-26T02:32:07.749Z,4.53
2019-02-26T02:36:59.596Z,4.83
2019-02-26T02:41:54.981Z,5.07
2019-02-26T02:46:46.645Z,4.93
2019-02-26T02:51:39.733Z,4.50
2019-02-26T02:56:34.076Z,7.40
2019-02-26T03:01:28.640Z,4.87
2019-02-26T03:06:20.174Z,4.53
2019-02-26T03:11:13.574Z,4.47
2019-02-26T03:16:06.935Z,4.53
2019-02-26T03:21:02.581Z,5.00
2019-02-26T03:25:55.165Z,5.80
2019-02-26T03:35:50.596Z,4.13
2019-02-26T03:40:43.970Z,4.20
2019-02-26T03:45:37.659Z,5.40
2019-02-26T03:50:31.307Z,5.13
2019-02-26T03:55:24.721Z,5.53
2019-02-26T04:00:20.039Z,5.67
2019-02-26T04:05:11.842Z,7.03
2019-02-26T04:10:05.205Z,4.50
2019-02-26T04:14:58.883Z,5.03
2019-02-26T04:19:52.346Z,4.30
2019-02-26T04:24:45.949Z,5.20
2019-02-26T04:29:59.035Z,5.43
2019-02-26T04:35:00.485Z,5.17
2019-02-26T04:40:11.864Z,5.17
2019-02-26T04:45:16.551Z,5.10
2019-02-26T04:50:10.282Z,4.77
2019-02-26T04:55:03.982Z,5.47
2019-02-26T04:59:59.140Z,4.37
2019-02-26T05:04:50.802Z,4.70
2019-02-26T05:09:44.394Z,4.67
2019-02-26T05:14:38.087Z,4.77
2019-02-26T05:19:31.758Z,4.80
2019-02-26T05:24:26.282Z,5.47
2019-02-26T05:29:18.832Z,6.90
2019-02-26T05:39:18.798Z,3.97
2019-02-26T05:44:10.775Z,5.37
2019-02-26T05:49:03.577Z,4.17
2019-02-26T05:53:56.145Z,4.83
2019-02-26T05:58:49.557Z,4.97
2019-02-26T06:03:44.250Z,5.13
2019-02-26T06:08:39.230Z,4.73
2019-02-26T06:13:31.556Z,4.90
2019-02-26T06:18:23.391Z,4.53
2019-02-26T06:23:16.748Z,4.00
2019-02-26T06:28:12.691Z,4.87
2019-02-26T06:33:04.306Z,5.23
2019-02-26T06:37:57.259Z,5.13
2019-02-26T06:42:50.634Z,5.23
2019-02-26T06:47:45.527Z,5.40
2019-02-26T06:52:39.954Z,4.03
2019-02-26T06:57:31.334Z,4.17
2019-02-26T07:02:28.279Z,4.30
2019-02-26T07:07:18.135Z,4.80
2019-02-26T07:12:11.495Z,4.33
2019-02-26T07:17:05.157Z,4.83
2019-02-26T07:21:58.844Z,7.93
2019-02-26T07:26:52.209Z,4.13
2019-02-26T07:31:47.232Z,4.90
2019-02-26T07:36:41.030Z,5.73
2019-02-26T07:41:32.972Z,5.10
2019-02-26T07:46:26.686Z,5.20
2019-02-26T07:51:20.064Z,4.93
2019-02-26T07:56:13.726Z,5.53
2019-02-26T08:01:07.100Z,4.33
2019-02-26T08:06:04.818Z,5.63
2019-02-26T08:10:53.861Z,4.53
2019-02-26T08:15:47.234Z,5.40
2019-02-26T08:20:40.930Z,5.50
2019-02-26T08:25:34.616Z,4.07
2019-02-26T08:30:27.986Z,6.07
2019-02-26T08:35:21.365Z,6.67
2019-02-26T08:40:14.964Z,4.80
2019-02-26T08:45:10.032Z,4.40
2019-02-26T08:50:04.714Z,5.03
2019-02-26T08:54:57.039Z,4.87
2019-02-26T08:59:52.081Z,5.40
2019-02-26T09:04:45.068Z,12.13
2019-02-26T09:09:37.180Z,7.13
2019-02-26T09:14:34.448Z,8.87
2019-02-26T09:19:25.275Z,8.70
2019-02-26T09:24:18.269Z,7.70
2019-02-26T09:29:12.714Z,4.00
2019-02-26T09:34:05.006Z,6.23
2019-02-26T09:38:58.377Z,3.97
2019-02-26T09:43:52.054Z,3.83
2019-02-26T09:48:46.157Z,4.13
2019-02-26T09:53:38.793Z,3.77
2019-02-26T09:58:32.195Z,3.10
2019-02-26T10:03:27.263Z,4.77
2019-02-26T10:08:19.972Z,4.10
2019-02-26T10:13:13.024Z,5.07
2019-02-26T10:18:09.171Z,5.30
2019-02-26T10:23:03.269Z,6.43
2019-02-26T10:27:54.056Z,5.70
2019-02-26T10:32:47.711Z,5.33
2019-02-26T10:37:45.300Z,4.73
2019-02-26T10:42:39.878Z,4.73
2019-02-26T10:47:32.736Z,5.17
2019-02-26T10:52:26.447Z,4.23
2019-02-26T10:57:18.904Z,4.30
2019-02-26T11:02:14.465Z,4.60
2019-02-26T11:07:08.756Z,4.63
2019-02-26T11:12:00.826Z,5.57
2019-02-26T11:16:53.035Z,6.17
2019-02-26T11:21:47.426Z,3.73
2019-02-26T11:26:40.966Z,4.80
2019-02-26T11:31:33.447Z,5.93
2019-02-26T11:36:28.104Z,5.47
2019-02-26T11:41:20.212Z,6.40
2019-02-26T11:46:13.618Z,5.17
2019-02-26T11:51:07.293Z,5.40
2019-02-26T11:56:02.048Z,4.80
2019-02-26T12:00:57.353Z,4.63
2019-02-26T12:05:50.194Z,4.67
2019-02-26T12:10:43.887Z,5.30
2019-02-26T12:15:39.891Z,4.03
2019-02-26T12:20:31.254Z,7.00
2019-02-26T12:25:24.961Z,6.27
2019-02-26T12:30:20.702Z,5.10
2019-02-26T12:35:14.767Z,5.37
2019-02-26T12:40:06.413Z,5.30
2019-02-26T12:45:01.919Z,5.40
2019-02-26T12:49:53.377Z,4.40
2019-02-26T12:54:47.058Z,4.33
2019-02-26T12:59:40.744Z,4.37
2019-02-26T13:04:37.382Z,5.27
2019-02-26T13:09:27.801Z,3.80
2019-02-26T13:14:21.191Z,4.37
2019-02-26T13:19:18.315Z,4.70
2019-02-26T13:24:13.921Z,3.90
2019-02-26T13:29:01.336Z,4.03
2019-02-26T13:33:54.761Z,6.17
2019-02-26T13:38:49.316Z,4.20
2019-02-26T13:43:41.767Z,4.47
2019-02-26T13:48:35.158Z,3.37
2019-02-26T13:53:28.843Z,4.83
2019-02-26T13:58:22.515Z,6.27
2019-02-26T14:03:15.891Z,4.37
2019-02-26T14:08:09.585Z,4.27
2019-02-26T14:13:03.896Z,5.10
2019-02-26T14:17:56.973Z,4.03
2019-02-26T14:22:50.659Z,4.63
2019-02-26T14:27:44.340Z,5.07
2019-02-26T14:32:37.737Z,4.13
2019-02-26T14:37:31.396Z,5.90
2019-02-26T14:42:24.782Z,6.90
2019-02-26T14:47:18.540Z,5.17
2019-02-26T14:52:11.941Z,7.47
2019-02-26T14:57:06.173Z,6.00
2019-02-26T15:01:59.537Z,8.90
2019-02-26T15:06:53.217Z,8.07
2019-02-26T15:11:46.908Z,7.13
2019-02-26T15:16:40.577Z,7.20
2019-02-26T15:21:33.931Z,5.60
2019-02-26T15:26:27.367Z,6.23
2019-02-26T15:31:21.041Z,5.20
2019-02-26T15:36:14.728Z,6.10
2019-02-26T15:41:08.113Z,3.87
2019-02-26T15:46:01.507Z,5.00
2019-02-26T15:50:54.887Z,5.33
2019-02-26T15:55:48.571Z,3.77
2019-02-26T16:00:41.945Z,5.03
2019-02-26T16:05:35.671Z,7.00
2019-02-26T16:10:29.286Z,6.43
2019-02-26T16:15:22.676Z,7.70
2019-02-26T16:20:17.247Z,6.13
2019-02-26T16:25:10.711Z,5.90
2019-02-26T16:30:04.764Z,5.60
2019-02-26T16:34:58.344Z,6.00
2019-02-26T16:39:52.055Z,8.57
2019-02-26T16:44:45.861Z,6.87
2019-02-26T16:49:39.235Z,6.67
2019-02-26T16:54:32.604Z,5.63
2019-02-26T16:59:26.150Z,5.30
2019-02-26T17:04:19.539Z,15.90
2019-02-26T17:09:13.231Z,20.23
2019-02-26T17:14:06.625Z,21.90
2019-02-26T17:19:00.328Z,22.17
2019-02-26T17:23:53.973Z,27.13
2019-02-26T17:28:47.735Z,27.70
2019-02-26T17:33:41.150Z,27.93
2019-02-26T17:38:34.772Z,27.80
2019-02-26T17:43:28.432Z,30.83
2019-02-26T17:48:21.847Z,28.43
2019-02-26T17:53:15.235Z,29.63
2019-02-26T17:58:10.571Z,29.90
2019-02-26T18:03:06.370Z,28.87
2019-02-26T18:07:55.753Z,32.40
2019-02-26T18:12:49.143Z,29.57
2019-02-26T18:17:42.695Z,33.93
2019-02-26T18:22:36.462Z,34.13
2019-02-26T18:27:30.569Z,29.53
2019-02-26T18:32:23.736Z,34.80
2019-02-26T18:37:20.221Z,31.47
2019-02-26T18:42:11.158Z,30.57
2019-02-26T18:47:04.807Z,30.40
2019-02-26T18:51:57.948Z,34.47
2019-02-26T18:56:51.580Z,30.43
2019-02-26T19:01:44.973Z,32.53
2019-02-26T19:06:38.376Z,30.50
2019-02-26T19:11:31.783Z,33.63
2019-02-26T19:16:25.168Z,33.20
2019-02-26T19:21:21.525Z,34.40
2019-02-26T19:26:13.802Z,31.23
2019-02-26T19:31:09.333Z,28.93
2019-02-26T19:35:59.239Z,33.43
2019-02-26T19:40:52.717Z,37.73
2019-02-26T19:45:46.307Z,29.70
2019-02-26T19:50:39.683Z,31.23
2019-02-26T19:55:33.999Z,31.50
2019-02-26T20:00:27.389Z,32.13
2019-02-26T20:05:20.776Z,34.27
2019-02-26T20:10:15.178Z,33.97
2019-02-26T20:15:08.016Z,33.80
2019-02-26T20:20:04.930Z,32.73
2019-02-26T20:24:54.874Z,35.93
2019-02-26T20:29:48.250Z,44.53
2019-02-26T20:34:41.678Z,33.33
2019-02-26T20:39:35.278Z,33.87
2019-02-26T20:44:28.980Z,36.97
2019-02-26T20:49:22.643Z,37.67
2019-02-26T20:54:16.036Z,38.23
2019-02-26T20:59:09.725Z,34.70
2019-02-26T21:04:03.455Z,34.20
2019-02-26T21:08:57.158Z,36.00
2019-02-26T21:13:50.559Z,34.67
2019-02-26T21:18:44.150Z,32.90
2019-02-26T21:23:37.543Z,36.37
2019-02-26T21:28:33.543Z,36.47
2019-02-26T21:33:24.612Z,34.00
2019-02-26T21:38:18.318Z,37.60
2019-02-26T21:43:11.703Z,32.20
2019-02-26T21:48:05.135Z,36.47
2019-02-26T21:52:59.852Z,35.67
2019-02-26T21:57:54.500Z,33.00
2019-02-26T22:02:45.495Z,18.23
2019-02-26T22:07:39.183Z,11.83
2019-02-26T22:12:32.557Z,9.43
2019-02-26T22:17:26.234Z,6.63
2019-02-26T22:22:19.610Z,7.20
2019-02-26T22:27:13.014Z,5.27
2019-02-26T22:32:06.380Z,5.43
2019-02-26T22:37:00.054Z,6.37
2019-02-26T22:41:53.433Z,5.33
2019-02-26T22:46:46.832Z,4.13
2019-02-26T22:51:40.227Z,3.83
2019-02-26T22:56:33.864Z,4.10
2019-02-26T23:01:36.684Z,2.10
2019-02-26T23:06:29.524Z,2.33
2019-02-26T23:11:22.814Z,1.50
2019-02-26T23:16:18.451Z,2.80
2019-02-26T23:21:10.285Z,2.03
2019-02-26T23:26:03.772Z,1.83
2019-02-26T23:30:59.648Z,1.80
2019-02-26T23:35:54.872Z,2.63
2019-02-26T23:40:44.097Z,3.67
2019-02-26T23:45:37.585Z,4.30
2019-02-26T23:50:31.184Z,5.97
2019-02-26T23:55:24.596Z,6.33
